sensor_id;sensor_type;location;lat;lon;timestamp;temperature;humidity
19970;DHT22;10146;47.754;9.566;2023-04-01T00:00:20;8.40;99.90
19970;DHT22;10146;47.754;9.566;2023-04-01T00:02:46;8.40;99.90
19970;DHT22;10146;47.754;9.566;2023-04-01T00:05:12;8.20;99.90
19970;DHT22;10146;47.754;9.566;2023-04-01T00:07:39;8.20;99.90
19970;DHT22;10146;47.754;9.566;2023-04-01T00:10:06;8.10;99.90
19970;DHT22;10146;47.754;9.566;2023-04-01T00:12:33;8.10;99.90
19970;DHT22;10146;47.754;9.566;2023-04-01T00:14:59;8.00;99.90
19970;DHT22;10146;47.754;9.566;2023-04-01T00:17:25;7.90;99.90
19970;DHT22;10146;47.754;9.566;2023-04-01T00:19:50;7.90;99.90
19970;DHT22;10146;47.754;9.566;2023-04-01T00:22:16;7.90;99.90
19970;DHT22;10146;47.754;9.566;2023-04-01T00:24:42;7.80;99.90
19970;DHT22;10146;47.754;9.566;2023-04-01T00:27:07;7.80;99.90
19970;DHT22;10146;47.754;9.566;2023-04-01T00:29:34;7.80;99.90
19970;DHT22;10146;47.754;9.566;2023-04-01T00:32:00;7.70;99.90
19970;DHT22;10146;47.754;9.566;2023-04-01T00:34:26;7.70;99.90
19970;DHT22;10146;47.754;9.566;2023-04-01T00:36:52;7.70;99.90
19970;DHT22;10146;47.754;9.566;2023-04-01T00:39:19;7.70;99.90
19970;DHT22;10146;47.754;9.566;2023-04-01T00:41:45;7.70;99.90
19970;DHT22;10146;47.754;9.566;2023-04-01T00:44:23;7.70;99.90
19970;DHT22;10146;47.754;9.566;2023-04-01T00:46:50;7.70;99.90
19970;DHT22;10146;47.754;9.566;2023-04-01T00:49:18;7.70;99.90
19970;DHT22;10146;47.754;9.566;2023-04-01T00:51:46;7.70;99.90
19970;DHT22;10146;47.754;9.566;2023-04-01T00:54:14;7.70;99.90
19970;DHT22;10146;47.754;9.566;2023-04-01T00:56:45;7.70;99.90
19970;DHT22;10146;47.754;9.566;2023-04-01T00:59:18;7.60;99.90
19970;DHT22;10146;47.754;9.566;2023-04-01T01:01:46;7.50;99.90
19970;DHT22;10146;47.754;9.566;2023-04-01T01:04:41;7.50;99.90
19970;DHT22;10146;47.754;9.566;2023-04-01T01:10:15;7.40;99.90
19970;DHT22;10146;47.754;9.566;2023-04-01T01:13:04;7.40;99.90
19970;DHT22;10146;47.754;9.566;2023-04-01T01:15:41;7.30;99.90
19970;DHT22;10146;47.754;9.566;2023-04-01T01:18:34;7.30;99.90
19970;DHT22;10146;47.754;9.566;2023-04-01T01:27:04;7.20;99.90
19970;DHT22;10146;47.754;9.566;2023-04-01T01:37:34;7.00;99.90
19970;DHT22;10146;47.754;9.566;2023-04-01T01:40:04;7.00;99.90
19970;DHT22;10146;47.754;9.566;2023-04-01T01:42:33;7.00;99.90
19970;DHT22;10146;47.754;9.566;2023-04-01T01:45:01;7.00;99.90
19970;DHT22;10146;47.754;9.566;2023-04-01T01:47:28;7.00;99.90
19970;DHT22;10146;47.754;9.566;2023-04-01T01:49:55;7.00;99.90
19970;DHT22;10146;47.754;9.566;2023-04-01T01:52:24;7.00;99.90
19970;DHT22;10146;47.754;9.566;2023-04-01T01:54:54;6.90;99.90
19970;DHT22;10146;47.754;9.566;2023-04-01T01:57:28;7.00;99.90
19970;DHT22;10146;47.754;9.566;2023-04-01T01:59:58;7.00;99.90
19970;DHT22;10146;47.754;9.566;2023-04-01T02:02:25;7.00;99.90
19970;DHT22;10146;47.754;9.566;2023-04-01T02:04:52;6.90;99.90
19970;DHT22;10146;47.754;9.566;2023-04-01T02:07:31;6.90;99.90
19970;DHT22;10146;47.754;9.566;2023-04-01T02:09:58;7.00;99.90
19970;DHT22;10146;47.754;9.566;2023-04-01T02:12:24;6.90;99.90
19970;DHT22;10146;47.754;9.566;2023-04-01T02:17:19;6.90;99.90
19970;DHT22;10146;47.754;9.566;2023-04-01T02:19:59;6.90;99.90
19970;DHT22;10146;47.754;9.566;2023-04-01T02:22:33;6.90;99.90
19970;DHT22;10146;47.754;9.566;2023-04-01T02:25:07;6.80;99.90
19970;DHT22;10146;47.754;9.566;2023-04-01T02:27:33;6.80;99.90
19970;DHT22;10146;47.754;9.566;2023-04-01T02:29:59;6.80;99.90
19970;DHT22;10146;47.754;9.566;2023-04-01T02:32:25;6.80;99.90
19970;DHT22;10146;47.754;9.566;2023-04-01T02:34:53;6.80;99.90
19970;DHT22;10146;47.754;9.566;2023-04-01T02:37:19;6.80;99.90
19970;DHT22;10146;47.754;9.566;2023-04-01T02:39:44;6.80;99.90
19970;DHT22;10146;47.754;9.566;2023-04-01T02:42:10;6.80;99.90
19970;DHT22;10146;47.754;9.566;2023-04-01T02:44:36;6.90;99.90
19970;DHT22;10146;47.754;9.566;2023-04-01T02:47:02;6.90;99.90
19970;DHT22;10146;47.754;9.566;2023-04-01T02:49:27;6.90;99.90
19970;DHT22;10146;47.754;9.566;2023-04-01T02:51:53;6.90;99.90
19970;DHT22;10146;47.754;9.566;2023-04-01T02:54:19;7.00;99.90
19970;DHT22;10146;47.754;9.566;2023-04-01T02:56:45;7.00;99.90
19970;DHT22;10146;47.754;9.566;2023-04-01T02:59:11;7.00;99.90
19970;DHT22;10146;47.754;9.566;2023-04-01T03:01:36;7.10;99.90
19970;DHT22;10146;47.754;9.566;2023-04-01T03:04:02;7.10;99.90
19970;DHT22;10146;47.754;9.566;2023-04-01T03:06:28;7.10;99.90
19970;DHT22;10146;47.754;9.566;2023-04-01T03:08:54;7.10;99.90
19970;DHT22;10146;47.754;9.566;2023-04-01T03:11:19;7.20;99.90
19970;DHT22;10146;47.754;9.566;2023-04-01T03:13:46;7.10;99.90
19970;DHT22;10146;47.754;9.566;2023-04-01T03:16:12;7.20;99.90
19970;DHT22;10146;47.754;9.566;2023-04-01T03:18:37;7.20;99.90
19970;DHT22;10146;47.754;9.566;2023-04-01T03:21:17;7.20;99.90
19970;DHT22;10146;47.754;9.566;2023-04-01T03:23:43;7.10;99.90
19970;DHT22;10146;47.754;9.566;2023-04-01T03:26:09;7.10;99.90
19970;DHT22;10146;47.754;9.566;2023-04-01T03:28:36;7.20;99.90
19970;DHT22;10146;47.754;9.566;2023-04-01T03:31:02;7.20;99.90
19970;DHT22;10146;47.754;9.566;2023-04-01T03:33:28;7.20;99.90
19970;DHT22;10146;47.754;9.566;2023-04-01T03:35:53;7.10;99.90
19970;DHT22;10146;47.754;9.566;2023-04-01T03:38:19;7.20;99.90
19970;DHT22;10146;47.754;9.566;2023-04-01T03:40:45;7.20;99.90
19970;DHT22;10146;47.754;9.566;2023-04-01T03:43:10;7.20;99.90
19970;DHT22;10146;47.754;9.566;2023-04-01T03:45:46;7.20;99.90
19970;DHT22;10146;47.754;9.566;2023-04-01T03:48:13;7.20;99.90
19970;DHT22;10146;47.754;9.566;2023-04-01T03:50:39;7.30;99.90
19970;DHT22;10146;47.754;9.566;2023-04-01T03:53:05;7.30;99.90
19970;DHT22;10146;47.754;9.566;2023-04-01T03:55:30;7.30;99.90
19970;DHT22;10146;47.754;9.566;2023-04-01T03:57:56;7.30;99.90
19970;DHT22;10146;47.754;9.566;2023-04-01T04:00:21;7.20;99.90
19970;DHT22;10146;47.754;9.566;2023-04-01T04:02:48;7.20;99.90
19970;DHT22;10146;47.754;9.566;2023-04-01T04:05:13;7.30;99.90
19970;DHT22;10146;47.754;9.566;2023-04-01T04:07:39;7.20;99.90
19970;DHT22;10146;47.754;9.566;2023-04-01T04:10:05;7.20;99.90
19970;DHT22;10146;47.754;9.566;2023-04-01T04:12:32;7.20;99.90
19970;DHT22;10146;47.754;9.566;2023-04-01T04:14:57;7.20;99.90
19970;DHT22;10146;47.754;9.566;2023-04-01T04:17:23;7.30;99.90
19970;DHT22;10146;47.754;9.566;2023-04-01T04:19:49;7.30;99.90
19970;DHT22;10146;47.754;9.566;2023-04-01T04:22:14;7.40;99.90
19970;DHT22;10146;47.754;9.566;2023-04-01T04:24:40;7.30;99.90
19970;DHT22;10146;47.754;9.566;2023-04-01T04:27:06;7.30;99.90
19970;DHT22;10146;47.754;9.566;2023-04-01T04:29:31;7.40;99.90
19970;DHT22;10146;47.754;9.566;2023-04-01T04:31:57;7.30;99.90
19970;DHT22;10146;47.754;9.566;2023-04-01T04:34:22;7.30;99.90
19970;DHT22;10146;47.754;9.566;2023-04-01T04:36:48;7.40;99.90
19970;DHT22;10146;47.754;9.566;2023-04-01T04:39:15;7.40;99.90
19970;DHT22;10146;47.754;9.566;2023-04-01T04:41:41;7.40;99.90
19970;DHT22;10146;47.754;9.566;2023-04-01T04:44:07;7.40;99.90
19970;DHT22;10146;47.754;9.566;2023-04-01T04:46:32;7.40;99.90
19970;DHT22;10146;47.754;9.566;2023-04-01T04:48:58;7.40;99.90
19970;DHT22;10146;47.754;9.566;2023-04-01T04:51:24;7.40;99.90
19970;DHT22;10146;47.754;9.566;2023-04-01T04:53:50;7.30;99.90
19970;DHT22;10146;47.754;9.566;2023-04-01T04:56:20;7.30;99.90
19970;DHT22;10146;47.754;9.566;2023-04-01T04:58:46;7.40;99.90
19970;DHT22;10146;47.754;9.566;2023-04-01T05:01:14;7.40;99.90
19970;DHT22;10146;47.754;9.566;2023-04-01T05:03:40;7.40;99.90
19970;DHT22;10146;47.754;9.566;2023-04-01T05:06:07;7.50;99.90
19970;DHT22;10146;47.754;9.566;2023-04-01T05:08:34;7.50;99.90
19970;DHT22;10146;47.754;9.566;2023-04-01T05:11:00;7.40;99.90
19970;DHT22;10146;47.754;9.566;2023-04-01T05:13:27;7.50;99.90
19970;DHT22;10146;47.754;9.566;2023-04-01T05:15:52;7.40;99.90
19970;DHT22;10146;47.754;9.566;2023-04-01T05:18:18;7.50;99.90
19970;DHT22;10146;47.754;9.566;2023-04-01T05:20:51;7.50;99.90
19970;DHT22;10146;47.754;9.566;2023-04-01T05:23:18;7.50;99.90
19970;DHT22;10146;47.754;9.566;2023-04-01T05:25:44;7.50;99.90
19970;DHT22;10146;47.754;9.566;2023-04-01T05:28:11;7.40;99.90
19970;DHT22;10146;47.754;9.566;2023-04-01T05:30:39;7.30;99.90
19970;DHT22;10146;47.754;9.566;2023-04-01T05:33:05;7.20;99.90
19970;DHT22;10146;47.754;9.566;2023-04-01T05:35:30;7.20;99.90
19970;DHT22;10146;47.754;9.566;2023-04-01T05:37:56;7.20;99.90
19970;DHT22;10146;47.754;9.566;2023-04-01T05:40:22;7.20;99.90
19970;DHT22;10146;47.754;9.566;2023-04-01T05:42:47;7.20;99.90
19970;DHT22;10146;47.754;9.566;2023-04-01T05:45:13;7.10;99.90
19970;DHT22;10146;47.754;9.566;2023-04-01T05:47:41;7.10;99.90
19970;DHT22;10146;47.754;9.566;2023-04-01T05:50:09;7.20;99.90
19970;DHT22;10146;47.754;9.566;2023-04-01T05:52:36;7.10;99.90
19970;DHT22;10146;47.754;9.566;2023-04-01T05:55:02;7.20;99.90
19970;DHT22;10146;47.754;9.566;2023-04-01T05:57:28;7.20;99.90
19970;DHT22;10146;47.754;9.566;2023-04-01T05:59:54;7.20;99.90
19970;DHT22;10146;47.754;9.566;2023-04-01T06:02:19;7.30;99.90
19970;DHT22;10146;47.754;9.566;2023-04-01T06:04:45;7.30;99.90
19970;DHT22;10146;47.754;9.566;2023-04-01T06:07:12;7.40;99.90
19970;DHT22;10146;47.754;9.566;2023-04-01T06:09:38;7.50;99.90
19970;DHT22;10146;47.754;9.566;2023-04-01T06:17:58;7.60;99.90
19970;DHT22;10146;47.754;9.566;2023-04-01T06:25:47;7.70;99.90
19970;DHT22;10146;47.754;9.566;2023-04-01T06:28:56;7.80;99.90
19970;DHT22;10146;47.754;9.566;2023-04-01T06:40:05;8.00;99.90
19970;DHT22;10146;47.754;9.566;2023-04-01T06:45:47;8.20;99.90
19970;DHT22;10146;47.754;9.566;2023-04-01T06:48:41;8.20;99.90
19970;DHT22;10146;47.754;9.566;2023-04-01T06:51:17;8.20;99.90
19970;DHT22;10146;47.754;9.566;2023-04-01T06:54:10;8.20;99.90
19970;DHT22;10146;47.754;9.566;2023-04-01T06:56:40;8.30;99.90
19970;DHT22;10146;47.754;9.566;2023-04-01T06:59:16;8.30;99.90
19970;DHT22;10146;47.754;9.566;2023-04-01T07:01:47;8.50;99.90
19970;DHT22;10146;47.754;9.566;2023-04-01T07:04:19;8.60;99.90
19970;DHT22;10146;47.754;9.566;2023-04-01T07:06:58;8.50;99.90
19970;DHT22;10146;47.754;9.566;2023-04-01T07:09:34;8.70;99.90
19970;DHT22;10146;47.754;9.566;2023-04-01T07:12:05;8.70;99.90
19970;DHT22;10146;47.754;9.566;2023-04-01T07:14:39;8.80;99.90
19970;DHT22;10146;47.754;9.566;2023-04-01T07:22:59;9.10;99.90
19970;DHT22;10146;47.754;9.566;2023-04-01T07:25:39;9.10;99.90
19970;DHT22;10146;47.754;9.566;2023-04-01T07:28:13;9.30;99.90
19970;DHT22;10146;47.754;9.566;2023-04-01T07:33:51;9.40;99.90
19970;DHT22;10146;47.754;9.566;2023-04-01T07:36:42;9.50;99.90
19970;DHT22;10146;47.754;9.566;2023-04-01T07:41:55;9.70;99.90
19970;DHT22;10146;47.754;9.566;2023-04-01T07:44:34;9.70;99.90
19970;DHT22;10146;47.754;9.566;2023-04-01T07:55:15;9.80;99.90
19970;DHT22;10146;47.754;9.566;2023-04-01T07:58:08;9.90;99.90
19970;DHT22;10146;47.754;9.566;2023-04-01T08:08:21;9.60;99.90
19970;DHT22;10146;47.754;9.566;2023-04-01T08:13:30;9.60;99.90
19970;DHT22;10146;47.754;9.566;2023-04-01T08:18:51;9.60;99.90
19970;DHT22;10146;47.754;9.566;2023-04-01T08:21:29;9.70;99.90
19970;DHT22;10146;47.754;9.566;2023-04-01T08:23:57;9.80;99.90
19970;DHT22;10146;47.754;9.566;2023-04-01T08:26:36;10.00;99.90
19970;DHT22;10146;47.754;9.566;2023-04-01T08:29:23;9.80;99.90
19970;DHT22;10146;47.754;9.566;2023-04-01T08:31:58;9.90;99.90
19970;DHT22;10146;47.754;9.566;2023-04-01T08:34:34;9.90;99.90
19970;DHT22;10146;47.754;9.566;2023-04-01T08:37:07;9.90;99.90
19970;DHT22;10146;47.754;9.566;2023-04-01T08:39:43;9.80;99.90
19970;DHT22;10146;47.754;9.566;2023-04-01T08:50:56;9.70;99.90
19970;DHT22;10146;47.754;9.566;2023-04-01T08:59:16;9.80;99.90
19970;DHT22;10146;47.754;9.566;2023-04-01T09:02:17;9.80;99.90
19970;DHT22;10146;47.754;9.566;2023-04-01T09:10:46;9.50;99.90
19970;DHT22;10146;47.754;9.566;2023-04-01T09:16:20;9.40;99.90
19970;DHT22;10146;47.754;9.566;2023-04-01T09:19:20;9.40;99.90
19970;DHT22;10146;47.754;9.566;2023-04-01T09:25:30;9.20;99.90
19970;DHT22;10146;47.754;9.566;2023-04-01T09:28:22;9.10;99.90
19970;DHT22;10146;47.754;9.566;2023-04-01T09:31:14;9.10;99.90
19970;DHT22;10146;47.754;9.566;2023-04-01T09:36:47;9.30;99.90
19970;DHT22;10146;47.754;9.566;2023-04-01T09:39:34;9.20;99.90
19970;DHT22;10146;47.754;9.566;2023-04-01T09:42:25;9.10;99.90
19970;DHT22;10146;47.754;9.566;2023-04-01T10:09:15;8.70;99.90
19970;DHT22;10146;47.754;9.566;2023-04-01T10:15:06;8.80;99.90
19970;DHT22;10146;47.754;9.566;2023-04-01T10:20:21;8.90;99.90
19970;DHT22;10146;47.754;9.566;2023-04-01T10:42:18;9.30;99.90
19970;DHT22;10146;47.754;9.566;2023-04-01T10:51:10;9.40;99.90
19970;DHT22;10146;47.754;9.566;2023-04-01T10:53:46;9.40;99.90
19970;DHT22;10146;47.754;9.566;2023-04-01T11:32:28;9.20;99.90
19970;DHT22;10146;47.754;9.566;2023-04-01T11:40:31;9.30;99.90
19970;DHT22;10146;47.754;9.566;2023-04-01T11:43:34;9.40;99.90
19970;DHT22;10146;47.754;9.566;2023-04-01T11:46:28;9.60;99.90
19970;DHT22;10146;47.754;9.566;2023-04-01T11:49:24;9.60;99.90
19970;DHT22;10146;47.754;9.566;2023-04-01T11:55:15;10.00;99.90
19970;DHT22;10146;47.754;9.566;2023-04-01T12:01:03;10.40;99.90
19970;DHT22;10146;47.754;9.566;2023-04-01T12:06:44;10.60;99.90
19970;DHT22;10146;47.754;9.566;2023-04-01T12:17:26;10.50;99.90
19970;DHT22;10146;47.754;9.566;2023-04-01T12:20:24;10.40;99.90
19970;DHT22;10146;47.754;9.566;2023-04-01T12:23:31;10.30;99.90
19970;DHT22;10146;47.754;9.566;2023-04-01T12:28:44;10.50;99.90
19970;DHT22;10146;47.754;9.566;2023-04-01T12:31:23;10.50;99.90
19970;DHT22;10146;47.754;9.566;2023-04-01T12:33:59;10.60;99.90
19970;DHT22;10146;47.754;9.566;2023-04-01T12:39:37;10.70;99.90
19970;DHT22;10146;47.754;9.566;2023-04-01T12:53:34;10.50;99.90
19970;DHT22;10146;47.754;9.566;2023-04-01T12:56:33;10.50;99.90
19970;DHT22;10146;47.754;9.566;2023-04-01T13:04:56;10.30;99.90
19970;DHT22;10146;47.754;9.566;2023-04-01T13:07:39;10.30;99.90
19970;DHT22;10146;47.754;9.566;2023-04-01T13:12:44;10.30;99.90
19970;DHT22;10146;47.754;9.566;2023-04-01T13:15:27;10.70;99.90
19970;DHT22;10146;47.754;9.566;2023-04-01T13:21:15;10.70;99.90
19970;DHT22;10146;47.754;9.566;2023-04-01T13:34:56;10.50;99.90
19970;DHT22;10146;47.754;9.566;2023-04-01T13:37:37;10.40;99.90
19970;DHT22;10146;47.754;9.566;2023-04-01T13:40:33;10.40;99.90
19970;DHT22;10146;47.754;9.566;2023-04-01T13:43:19;10.30;99.90
19970;DHT22;10146;47.754;9.566;2023-04-01T13:54:12;10.10;99.90
19970;DHT22;10146;47.754;9.566;2023-04-01T13:57:07;10.10;99.90
19970;DHT22;10146;47.754;9.566;2023-04-01T14:10:43;10.00;99.90
19970;DHT22;10146;47.754;9.566;2023-04-01T14:13:31;9.90;99.90
19970;DHT22;10146;47.754;9.566;2023-04-01T14:22:21;10.00;99.90
19970;DHT22;10146;47.754;9.566;2023-04-01T14:28:04;9.90;99.90
19970;DHT22;10146;47.754;9.566;2023-04-01T14:30:57;9.80;99.90
19970;DHT22;10146;47.754;9.566;2023-04-01T14:39:50;9.60;99.90
19970;DHT22;10146;47.754;9.566;2023-04-01T14:42:45;9.70;99.90
19970;DHT22;10146;47.754;9.566;2023-04-01T14:45:36;9.80;99.90
19970;DHT22;10146;47.754;9.566;2023-04-01T14:48:28;9.80;99.90
19970;DHT22;10146;47.754;9.566;2023-04-01T14:51:02;9.90;99.90
19970;DHT22;10146;47.754;9.566;2023-04-01T14:53:31;9.90;99.90
19970;DHT22;10146;47.754;9.566;2023-04-01T14:56:01;10.00;99.90
19970;DHT22;10146;47.754;9.566;2023-04-01T14:58:41;10.00;99.90
19970;DHT22;10146;47.754;9.566;2023-04-01T15:01:35;10.00;99.90
19970;DHT22;10146;47.754;9.566;2023-04-01T15:04:35;10.00;99.90
19970;DHT22;10146;47.754;9.566;2023-04-01T15:07:45;10.00;99.90
19970;DHT22;10146;47.754;9.566;2023-04-01T15:18:56;10.10;99.90
19970;DHT22;10146;47.754;9.566;2023-04-01T15:37:39;9.20;99.90
19970;DHT22;10146;47.754;9.566;2023-04-01T15:40:27;9.30;99.90
19970;DHT22;10146;47.754;9.566;2023-04-01T15:54:23;9.80;99.90
19970;DHT22;10146;47.754;9.566;2023-04-01T16:08:37;9.60;99.90
19970;DHT22;10146;47.754;9.566;2023-04-01T16:11:35;9.50;99.90
19970;DHT22;10146;47.754;9.566;2023-04-01T16:19:59;9.40;99.90
19970;DHT22;10146;47.754;9.566;2023-04-01T16:22:31;9.40;99.90
19970;DHT22;10146;47.754;9.566;2023-04-01T16:28:11;9.40;99.90
19970;DHT22;10146;47.754;9.566;2023-04-01T16:30:54;9.40;99.90
19970;DHT22;10146;47.754;9.566;2023-04-01T16:33:55;9.30;99.90
19970;DHT22;10146;47.754;9.566;2023-04-01T16:36:58;9.30;99.90
19970;DHT22;10146;47.754;9.566;2023-04-01T16:39:47;9.30;99.90
19970;DHT22;10146;47.754;9.566;2023-04-01T16:42:38;9.20;99.90
19970;DHT22;10146;47.754;9.566;2023-04-01T16:50:27;9.10;99.90
19970;DHT22;10146;47.754;9.566;2023-04-01T16:53:17;9.10;99.90
19970;DHT22;10146;47.754;9.566;2023-04-01T16:56:09;9.10;99.90
19970;DHT22;10146;47.754;9.566;2023-04-01T17:01:19;9.00;99.90
19970;DHT22;10146;47.754;9.566;2023-04-01T17:03:46;9.00;99.90
19970;DHT22;10146;47.754;9.566;2023-04-01T17:06:28;9.10;99.90
19970;DHT22;10146;47.754;9.566;2023-04-01T17:09:07;9.00;99.90
19970;DHT22;10146;47.754;9.566;2023-04-01T17:14:23;9.00;99.90
19970;DHT22;10146;47.754;9.566;2023-04-01T17:17:13;9.00;99.90
19970;DHT22;10146;47.754;9.566;2023-04-01T17:35:58;8.80;99.90
19970;DHT22;10146;47.754;9.566;2023-04-01T17:38:50;8.80;99.90
19970;DHT22;10146;47.754;9.566;2023-04-01T17:44:31;8.70;99.90
19970;DHT22;10146;47.754;9.566;2023-04-01T17:47:17;8.70;99.90
19970;DHT22;10146;47.754;9.566;2023-04-01T17:50:08;8.60;99.90
19970;DHT22;10146;47.754;9.566;2023-04-01T17:53:11;8.60;99.90
19970;DHT22;10146;47.754;9.566;2023-04-01T17:55:55;8.60;99.90
19970;DHT22;10146;47.754;9.566;2023-04-01T18:15:12;8.40;99.90
19970;DHT22;10146;47.754;9.566;2023-04-01T18:18:03;8.40;99.90
19970;DHT22;10146;47.754;9.566;2023-04-01T18:20:54;8.40;99.90
19970;DHT22;10146;47.754;9.566;2023-04-01T18:23:38;8.40;99.90
19970;DHT22;10146;47.754;9.566;2023-04-01T18:26:22;8.30;99.90
19970;DHT22;10146;47.754;9.566;2023-04-01T18:31:25;8.20;99.90
19970;DHT22;10146;47.754;9.566;2023-04-01T18:34:16;8.20;99.90
19970;DHT22;10146;47.754;9.566;2023-04-01T18:36:51;8.00;99.90
19970;DHT22;10146;47.754;9.566;2023-04-01T18:42:33;8.00;99.90
19970;DHT22;10146;47.754;9.566;2023-04-01T18:45:20;7.90;99.90
19970;DHT22;10146;47.754;9.566;2023-04-01T18:47:57;7.80;99.90
19970;DHT22;10146;47.754;9.566;2023-04-01T18:50:55;7.80;99.90
19970;DHT22;10146;47.754;9.566;2023-04-01T18:56:09;7.80;99.90
19970;DHT22;10146;47.754;9.566;2023-04-01T18:58:46;7.80;99.90
19970;DHT22;10146;47.754;9.566;2023-04-01T19:06:56;7.90;99.90
19970;DHT22;10146;47.754;9.566;2023-04-01T19:09:30;7.90;99.90
19970;DHT22;10146;47.754;9.566;2023-04-01T19:20:29;7.90;99.90
19970;DHT22;10146;47.754;9.566;2023-04-01T19:26:11;7.80;99.90
19970;DHT22;10146;47.754;9.566;2023-04-01T19:31:34;7.60;99.90
19970;DHT22;10146;47.754;9.566;2023-04-01T19:36:56;7.40;99.90
19970;DHT22;10146;47.754;9.566;2023-04-01T19:42:49;7.20;99.90
19970;DHT22;10146;47.754;9.566;2023-04-01T19:48:34;7.20;99.90
19970;DHT22;10146;47.754;9.566;2023-04-01T19:51:16;7.20;99.90
19970;DHT22;10146;47.754;9.566;2023-04-01T19:56:56;7.10;99.90
19970;DHT22;10146;47.754;9.566;2023-04-01T19:59:38;7.00;99.90
19970;DHT22;10146;47.754;9.566;2023-04-01T20:04:41;6.90;99.90
19970;DHT22;10146;47.754;9.566;2023-04-01T20:07:20;6.90;99.90
19970;DHT22;10146;47.754;9.566;2023-04-01T20:10:09;7.00;99.90
19970;DHT22;10146;47.754;9.566;2023-04-01T20:13:21;6.90;99.90
19970;DHT22;10146;47.754;9.566;2023-04-01T20:16:04;6.80;99.90
19970;DHT22;10146;47.754;9.566;2023-04-01T20:18:47;6.90;99.90
19970;DHT22;10146;47.754;9.566;2023-04-01T20:21:43;6.80;99.90
19970;DHT22;10146;47.754;9.566;2023-04-01T20:26:43;6.80;99.90
19970;DHT22;10146;47.754;9.566;2023-04-01T20:40:31;6.50;99.90
19970;DHT22;10146;47.754;9.566;2023-04-01T20:46:18;6.50;99.90
19970;DHT22;10146;47.754;9.566;2023-04-01T20:51:34;6.50;99.90
19970;DHT22;10146;47.754;9.566;2023-04-01T20:54:24;6.50;99.90
19970;DHT22;10146;47.754;9.566;2023-04-01T20:57:05;6.40;99.90
19970;DHT22;10146;47.754;9.566;2023-04-01T21:00:08;6.30;99.90
19970;DHT22;10146;47.754;9.566;2023-04-01T21:03:06;6.30;99.90
19970;DHT22;10146;47.754;9.566;2023-04-01T21:24:41;5.90;99.90
19970;DHT22;10146;47.754;9.566;2023-04-01T21:27:23;5.80;99.90
19970;DHT22;10146;47.754;9.566;2023-04-01T21:37:31;5.70;99.90
19970;DHT22;10146;47.754;9.566;2023-04-01T21:49:01;5.50;99.90
19970;DHT22;10146;47.754;9.566;2023-04-01T21:54:58;5.50;99.90
19970;DHT22;10146;47.754;9.566;2023-04-01T22:00:36;5.50;99.90
19970;DHT22;10146;47.754;9.566;2023-04-01T22:08:41;5.60;99.90
19970;DHT22;10146;47.754;9.566;2023-04-01T22:14:05;5.50;99.90
19970;DHT22;10146;47.754;9.566;2023-04-01T22:16:51;5.40;99.90
19970;DHT22;10146;47.754;9.566;2023-04-01T22:21:56;5.30;99.90
19970;DHT22;10146;47.754;9.566;2023-04-01T22:32:49;5.30;99.90
19970;DHT22;10146;47.754;9.566;2023-04-01T22:40:52;5.50;99.90
19970;DHT22;10146;47.754;9.566;2023-04-01T22:43:39;5.60;99.90
19970;DHT22;10146;47.754;9.566;2023-04-01T22:52:05;5.40;99.90
19970;DHT22;10146;47.754;9.566;2023-04-01T22:54:46;5.20;99.90
19970;DHT22;10146;47.754;9.566;2023-04-01T22:57:38;5.30;99.90
19970;DHT22;10146;47.754;9.566;2023-04-01T23:02:40;5.20;99.90
19970;DHT22;10146;47.754;9.566;2023-04-01T23:05:13;5.10;99.90
19970;DHT22;10146;47.754;9.566;2023-04-01T23:12:52;5.10;99.90
19970;DHT22;10146;47.754;9.566;2023-04-01T23:15:19;5.00;99.90
19970;DHT22;10146;47.754;9.566;2023-04-01T23:21:06;4.90;99.90
19970;DHT22;10146;47.754;9.566;2023-04-01T23:29:04;4.90;99.90
19970;DHT22;10146;47.754;9.566;2023-04-01T23:31:37;4.80;99.90
19970;DHT22;10146;47.754;9.566;2023-04-01T23:36:41;4.80;99.90
19970;DHT22;10146;47.754;9.566;2023-04-01T23:39:43;4.70;99.90
19970;DHT22;10146;47.754;9.566;2023-04-01T23:42:26;4.60;99.90
19970;DHT22;10146;47.754;9.566;2023-04-01T23:45:11;4.50;99.90
19970;DHT22;10146;47.754;9.566;2023-04-01T23:47:39;4.40;99.90
19970;DHT22;10146;47.754;9.566;2023-04-01T23:50:14;4.40;99.90
19970;DHT22;10146;47.754;9.566;2023-04-01T23:52:52;4.40;99.90
19970;DHT22;10146;47.754;9.566;2023-04-01T23:55:23;4.40;99.90
